sensor_id;sensor_type;location;lat;lon;timestamp;P1;durP1;ratioP1;P2;durP2;ratioP2
26050;SDS011;13825;53.496;10.020;2023-05-20T00:02:21;0.93;;;0.80;;
26050;SDS011;13825;53.496;10.020;2023-05-20T00:04:48;1.40;;;1.30;;
26050;SDS011;13825;53.496;10.020;2023-05-20T00:07:15;1.53;;;1.13;;
26050;SDS011;13825;53.496;10.020;2023-05-20T00:09:42;1.30;;;1.20;;
26050;SDS011;13825;53.496;10.020;2023-05-20T00:12:11;5.40;;;1.23;;
26050;SDS011;13825;53.496;10.020;2023-05-20T00:14:38;1.20;;;1.10;;
26050;SDS011;13825;53.496;10.020;2023-05-20T00:17:05;1.30;;;1.00;;
26050;SDS011;13825;53.496;10.020;2023-05-20T00:19:32;1.40;;;1.13;;
26050;SDS011;13825;53.496;10.020;2023-05-20T00:21:59;2.13;;;1.30;;
26050;SDS011;13825;53.496;10.020;2023-05-20T00:24:26;1.90;;;1.23;;
26050;SDS011;13825;53.496;10.020;2023-05-20T00:26:53;1.03;;;0.97;;
26050;SDS011;13825;53.496;10.020;2023-05-20T00:29:21;3.63;;;1.43;;
26050;SDS011;13825;53.496;10.020;2023-05-20T00:31:48;1.73;;;1.30;;
26050;SDS011;13825;53.496;10.020;2023-05-20T00:34:15;2.20;;;1.17;;
26050;SDS011;13825;53.496;10.020;2023-05-20T00:36:42;1.40;;;1.20;;
26050;SDS011;13825;53.496;10.020;2023-05-20T00:39:09;1.20;;;1.10;;
26050;SDS011;13825;53.496;10.020;2023-05-20T00:41:36;3.93;;;1.03;;
26050;SDS011;13825;53.496;10.020;2023-05-20T00:44:03;1.30;;;1.13;;
26050;SDS011;13825;53.496;10.020;2023-05-20T00:46:31;1.83;;;1.17;;
26050;SDS011;13825;53.496;10.020;2023-05-20T00:48:59;1.10;;;1.00;;
26050;SDS011;13825;53.496;10.020;2023-05-20T00:51:26;2.10;;;0.87;;
26050;SDS011;13825;53.496;10.020;2023-05-20T00:53:54;1.93;;;1.17;;
26050;SDS011;13825;53.496;10.020;2023-05-20T00:56:21;0.90;;;0.90;;
26050;SDS011;13825;53.496;10.020;2023-05-20T00:58:48;2.07;;;1.30;;
26050;SDS011;13825;53.496;10.020;2023-05-20T01:01:16;1.30;;;1.20;;
26050;SDS011;13825;53.496;10.020;2023-05-20T01:03:44;1.33;;;1.10;;
26050;SDS011;13825;53.496;10.020;2023-05-20T01:06:12;1.20;;;1.10;;
26050;SDS011;13825;53.496;10.020;2023-05-20T01:08:39;1.33;;;1.00;;
26050;SDS011;13825;53.496;10.020;2023-05-20T01:11:07;1.67;;;1.10;;
26050;SDS011;13825;53.496;10.020;2023-05-20T01:13:38;1.27;;;1.00;;
26050;SDS011;13825;53.496;10.020;2023-05-20T01:16:11;1.40;;;1.23;;
26050;SDS011;13825;53.496;10.020;2023-05-20T01:18:42;1.77;;;1.03;;
26050;SDS011;13825;53.496;10.020;2023-05-20T01:21:13;1.50;;;1.10;;
26050;SDS011;13825;53.496;10.020;2023-05-20T01:23:43;1.00;;;0.93;;
26050;SDS011;13825;53.496;10.020;2023-05-20T01:26:10;1.63;;;1.00;;
26050;SDS011;13825;53.496;10.020;2023-05-20T01:28:39;1.17;;;1.07;;
26050;SDS011;13825;53.496;10.020;2023-05-20T01:31:10;1.50;;;0.87;;
26050;SDS011;13825;53.496;10.020;2023-05-20T01:33:41;2.10;;;1.10;;
26050;SDS011;13825;53.496;10.020;2023-05-20T01:36:09;2.27;;;1.00;;
26050;SDS011;13825;53.496;10.020;2023-05-20T01:38:37;2.10;;;1.30;;
26050;SDS011;13825;53.496;10.020;2023-05-20T01:41:07;1.53;;;1.10;;
26050;SDS011;13825;53.496;10.020;2023-05-20T01:43:34;2.53;;;1.17;;
26050;SDS011;13825;53.496;10.020;2023-05-20T01:46:04;1.17;;;1.07;;
26050;SDS011;13825;53.496;10.020;2023-05-20T01:48:31;2.03;;;1.50;;
26050;SDS011;13825;53.496;10.020;2023-05-20T01:50:58;1.50;;;1.17;;
26050;SDS011;13825;53.496;10.020;2023-05-20T01:53:25;0.93;;;0.83;;
26050;SDS011;13825;53.496;10.020;2023-05-20T01:55:52;2.30;;;1.00;;
26050;SDS011;13825;53.496;10.020;2023-05-20T01:58:21;4.23;;;2.43;;
26050;SDS011;13825;53.496;10.020;2023-05-20T02:00:48;1.50;;;1.07;;
26050;SDS011;13825;53.496;10.020;2023-05-20T02:03:15;1.33;;;1.23;;
26050;SDS011;13825;53.496;10.020;2023-05-20T02:05:42;1.57;;;1.30;;
26050;SDS011;13825;53.496;10.020;2023-05-20T02:08:09;3.30;;;1.17;;
26050;SDS011;13825;53.496;10.020;2023-05-20T02:10:36;1.10;;;1.00;;
26050;SDS011;13825;53.496;10.020;2023-05-20T02:13:03;1.73;;;1.20;;
26050;SDS011;13825;53.496;10.020;2023-05-20T02:15:31;2.57;;;1.30;;
26050;SDS011;13825;53.496;10.020;2023-05-20T02:17:58;2.13;;;1.10;;
26050;SDS011;13825;53.496;10.020;2023-05-20T02:20:26;0.90;;;0.90;;
26050;SDS011;13825;53.496;10.020;2023-05-20T02:22:53;1.60;;;1.03;;
26050;SDS011;13825;53.496;10.020;2023-05-20T02:25:20;1.53;;;0.97;;
26050;SDS011;13825;53.496;10.020;2023-05-20T02:27:47;2.40;;;0.80;;
26050;SDS011;13825;53.496;10.020;2023-05-20T02:30:13;1.50;;;1.10;;
26050;SDS011;13825;53.496;10.020;2023-05-20T02:32:42;1.60;;;1.27;;
26050;SDS011;13825;53.496;10.020;2023-05-20T02:35:09;1.57;;;1.30;;
26050;SDS011;13825;53.496;10.020;2023-05-20T02:37:36;1.30;;;1.20;;
26050;SDS011;13825;53.496;10.020;2023-05-20T02:40:04;1.27;;;1.17;;
26050;SDS011;13825;53.496;10.020;2023-05-20T02:42:33;3.73;;;1.07;;
26050;SDS011;13825;53.496;10.020;2023-05-20T02:45:00;1.17;;;1.00;;
26050;SDS011;13825;53.496;10.020;2023-05-20T02:47:27;3.23;;;1.20;;
26050;SDS011;13825;53.496;10.020;2023-05-20T02:49:56;1.40;;;1.13;;
26050;SDS011;13825;53.496;10.020;2023-05-20T02:52:23;1.10;;;0.90;;
26050;SDS011;13825;53.496;10.020;2023-05-20T02:54:50;1.37;;;1.17;;
26050;SDS011;13825;53.496;10.020;2023-05-20T02:57:17;1.13;;;1.03;;
26050;SDS011;13825;53.496;10.020;2023-05-20T02:59:44;2.47;;;1.10;;
26050;SDS011;13825;53.496;10.020;2023-05-20T03:02:11;1.83;;;1.30;;
26050;SDS011;13825;53.496;10.020;2023-05-20T03:04:38;1.33;;;1.20;;
26050;SDS011;13825;53.496;10.020;2023-05-20T03:07:06;1.30;;;1.17;;
26050;SDS011;13825;53.496;10.020;2023-05-20T03:09:34;1.00;;;0.90;;
26050;SDS011;13825;53.496;10.020;2023-05-20T03:12:01;2.43;;;1.00;;
26050;SDS011;13825;53.496;10.020;2023-05-20T03:14:29;1.43;;;1.30;;
26050;SDS011;13825;53.496;10.020;2023-05-20T03:16:55;3.17;;;1.30;;
26050;SDS011;13825;53.496;10.020;2023-05-20T03:19:24;1.20;;;1.10;;
26050;SDS011;13825;53.496;10.020;2023-05-20T03:21:50;2.47;;;1.40;;
26050;SDS011;13825;53.496;10.020;2023-05-20T03:24:19;1.53;;;1.23;;
26050;SDS011;13825;53.496;10.020;2023-05-20T03:26:47;2.60;;;1.33;;
26050;SDS011;13825;53.496;10.020;2023-05-20T03:29:15;3.70;;;1.17;;
26050;SDS011;13825;53.496;10.020;2023-05-20T03:31:42;1.30;;;1.17;;
26050;SDS011;13825;53.496;10.020;2023-05-20T03:34:09;2.90;;;1.33;;
26050;SDS011;13825;53.496;10.020;2023-05-20T03:36:36;1.50;;;1.20;;
26050;SDS011;13825;53.496;10.020;2023-05-20T03:39:03;2.70;;;1.47;;
26050;SDS011;13825;53.496;10.020;2023-05-20T03:41:31;2.53;;;1.37;;
26050;SDS011;13825;53.496;10.020;2023-05-20T03:43:59;2.33;;;1.20;;
26050;SDS011;13825;53.496;10.020;2023-05-20T03:46:26;3.43;;;1.40;;
26050;SDS011;13825;53.496;10.020;2023-05-20T03:48:54;1.70;;;1.20;;
26050;SDS011;13825;53.496;10.020;2023-05-20T03:51:21;3.50;;;1.30;;
26050;SDS011;13825;53.496;10.020;2023-05-20T03:53:48;2.07;;;1.20;;
26050;SDS011;13825;53.496;10.020;2023-05-20T03:56:15;1.30;;;1.20;;
26050;SDS011;13825;53.496;10.020;2023-05-20T03:58:43;1.47;;;1.10;;
26050;SDS011;13825;53.496;10.020;2023-05-20T04:01:10;1.80;;;1.20;;
26050;SDS011;13825;53.496;10.020;2023-05-20T04:03:38;1.63;;;1.20;;
26050;SDS011;13825;53.496;10.020;2023-05-20T04:06:05;1.83;;;1.30;;
26050;SDS011;13825;53.496;10.020;2023-05-20T04:08:32;1.10;;;0.90;;
26050;SDS011;13825;53.496;10.020;2023-05-20T04:11:00;1.27;;;1.17;;
26050;SDS011;13825;53.496;10.020;2023-05-20T04:13:27;2.17;;;1.37;;
26050;SDS011;13825;53.496;10.020;2023-05-20T04:15:55;1.30;;;1.17;;
26050;SDS011;13825;53.496;10.020;2023-05-20T04:18:22;2.00;;;1.20;;
26050;SDS011;13825;53.496;10.020;2023-05-20T04:20:52;3.17;;;1.63;;
26050;SDS011;13825;53.496;10.020;2023-05-20T04:23:20;2.27;;;1.17;;
26050;SDS011;13825;53.496;10.020;2023-05-20T04:25:47;1.10;;;1.00;;
26050;SDS011;13825;53.496;10.020;2023-05-20T04:28:14;1.87;;;1.33;;
26050;SDS011;13825;53.496;10.020;2023-05-20T04:30:41;2.90;;;1.20;;
26050;SDS011;13825;53.496;10.020;2023-05-20T04:33:10;1.57;;;1.30;;
26050;SDS011;13825;53.496;10.020;2023-05-20T04:35:38;4.83;;;1.40;;
26050;SDS011;13825;53.496;10.020;2023-05-20T04:38:06;1.10;;;1.00;;
26050;SDS011;13825;53.496;10.020;2023-05-20T04:40:33;2.03;;;1.40;;
26050;SDS011;13825;53.496;10.020;2023-05-20T04:43:00;1.30;;;1.13;;
26050;SDS011;13825;53.496;10.020;2023-05-20T04:45:28;3.37;;;1.20;;
26050;SDS011;13825;53.496;10.020;2023-05-20T04:47:55;1.80;;;1.20;;
26050;SDS011;13825;53.496;10.020;2023-05-20T04:50:29;2.30;;;1.43;;
26050;SDS011;13825;53.496;10.020;2023-05-20T04:53:03;2.77;;;1.10;;
26050;SDS011;13825;53.496;10.020;2023-05-20T04:55:30;1.50;;;1.20;;
26050;SDS011;13825;53.496;10.020;2023-05-20T04:57:57;1.73;;;1.07;;
26050;SDS011;13825;53.496;10.020;2023-05-20T05:00:24;1.80;;;1.00;;
26050;SDS011;13825;53.496;10.020;2023-05-20T05:02:51;1.80;;;1.30;;
26050;SDS011;13825;53.496;10.020;2023-05-20T05:05:18;1.60;;;1.00;;
26050;SDS011;13825;53.496;10.020;2023-05-20T05:07:46;1.37;;;1.20;;
26050;SDS011;13825;53.496;10.020;2023-05-20T05:10:13;1.20;;;1.10;;
26050;SDS011;13825;53.496;10.020;2023-05-20T05:12:40;1.30;;;1.20;;
26050;SDS011;13825;53.496;10.020;2023-05-20T05:15:08;1.30;;;1.20;;
26050;SDS011;13825;53.496;10.020;2023-05-20T05:17:36;1.60;;;1.30;;
26050;SDS011;13825;53.496;10.020;2023-05-20T05:20:03;2.07;;;1.23;;
26050;SDS011;13825;53.496;10.020;2023-05-20T05:22:32;2.63;;;1.30;;
26050;SDS011;13825;53.496;10.020;2023-05-20T05:25:02;3.43;;;1.50;;
26050;SDS011;13825;53.496;10.020;2023-05-20T05:27:31;1.63;;;1.30;;
26050;SDS011;13825;53.496;10.020;2023-05-20T05:29:59;2.90;;;1.53;;
26050;SDS011;13825;53.496;10.020;2023-05-20T05:32:26;5.13;;;1.23;;
26050;SDS011;13825;53.496;10.020;2023-05-20T05:34:53;1.73;;;1.27;;
26050;SDS011;13825;53.496;10.020;2023-05-20T05:37:20;1.10;;;0.90;;
26050;SDS011;13825;53.496;10.020;2023-05-20T05:39:47;3.23;;;1.33;;
26050;SDS011;13825;53.496;10.020;2023-05-20T05:42:16;1.30;;;0.93;;
26050;SDS011;13825;53.496;10.020;2023-05-20T05:44:43;1.77;;;1.53;;
26050;SDS011;13825;53.496;10.020;2023-05-20T05:47:10;4.70;;;1.50;;
26050;SDS011;13825;53.496;10.020;2023-05-20T05:49:37;2.90;;;1.40;;
26050;SDS011;13825;53.496;10.020;2023-05-20T05:52:04;2.50;;;1.20;;
26050;SDS011;13825;53.496;10.020;2023-05-20T05:54:31;2.80;;;1.40;;
26050;SDS011;13825;53.496;10.020;2023-05-20T05:56:58;2.90;;;1.37;;
26050;SDS011;13825;53.496;10.020;2023-05-20T05:59:27;1.20;;;1.10;;
26050;SDS011;13825;53.496;10.020;2023-05-20T06:01:54;3.20;;;1.70;;
26050;SDS011;13825;53.496;10.020;2023-05-20T06:04:21;2.90;;;1.30;;
26050;SDS011;13825;53.496;10.020;2023-05-20T06:06:48;3.50;;;1.20;;
26050;SDS011;13825;53.496;10.020;2023-05-20T06:09:15;6.43;;;1.60;;
26050;SDS011;13825;53.496;10.020;2023-05-20T06:11:42;2.47;;;1.40;;
26050;SDS011;13825;53.496;10.020;2023-05-20T06:14:09;3.03;;;1.30;;
26050;SDS011;13825;53.496;10.020;2023-05-20T06:16:37;2.03;;;1.50;;
26050;SDS011;13825;53.496;10.020;2023-05-20T06:19:04;1.80;;;1.47;;
26050;SDS011;13825;53.496;10.020;2023-05-20T06:21:33;2.50;;;1.50;;
26050;SDS011;13825;53.496;10.020;2023-05-20T06:24:00;3.30;;;1.80;;
26050;SDS011;13825;53.496;10.020;2023-05-20T06:26:27;4.80;;;1.77;;
26050;SDS011;13825;53.496;10.020;2023-05-20T06:28:54;3.10;;;1.60;;
26050;SDS011;13825;53.496;10.020;2023-05-20T06:31:21;4.00;;;1.50;;
26050;SDS011;13825;53.496;10.020;2023-05-20T06:33:50;1.93;;;1.63;;
26050;SDS011;13825;53.496;10.020;2023-05-20T06:36:17;3.67;;;1.80;;
26050;SDS011;13825;53.496;10.020;2023-05-20T06:38:44;4.57;;;1.40;;
26050;SDS011;13825;53.496;10.020;2023-05-20T06:41:11;2.93;;;1.67;;
26050;SDS011;13825;53.496;10.020;2023-05-20T06:43:38;4.03;;;1.53;;
26050;SDS011;13825;53.496;10.020;2023-05-20T06:46:05;2.93;;;1.30;;
26050;SDS011;13825;53.496;10.020;2023-05-20T06:48:32;1.70;;;1.53;;
26050;SDS011;13825;53.496;10.020;2023-05-20T06:51:00;4.10;;;1.53;;
26050;SDS011;13825;53.496;10.020;2023-05-20T06:53:27;2.13;;;1.30;;
26050;SDS011;13825;53.496;10.020;2023-05-20T06:55:54;1.43;;;1.27;;
26050;SDS011;13825;53.496;10.020;2023-05-20T06:58:21;2.47;;;1.80;;
26050;SDS011;13825;53.496;10.020;2023-05-20T07:00:48;2.23;;;1.40;;
26050;SDS011;13825;53.496;10.020;2023-05-20T07:03:15;1.80;;;1.53;;
26050;SDS011;13825;53.496;10.020;2023-05-20T07:05:42;3.10;;;1.57;;
26050;SDS011;13825;53.496;10.020;2023-05-20T07:08:11;3.00;;;1.87;;
26050;SDS011;13825;53.496;10.020;2023-05-20T07:10:38;3.47;;;1.70;;
26050;SDS011;13825;53.496;10.020;2023-05-20T07:13:05;4.57;;;1.87;;
26050;SDS011;13825;53.496;10.020;2023-05-20T07:15:32;3.37;;;1.63;;
26050;SDS011;13825;53.496;10.020;2023-05-20T07:17:58;2.07;;;1.47;;
26050;SDS011;13825;53.496;10.020;2023-05-20T07:20:26;5.23;;;1.90;;
26050;SDS011;13825;53.496;10.020;2023-05-20T07:22:59;4.50;;;1.57;;
26050;SDS011;13825;53.496;10.020;2023-05-20T07:25:30;3.00;;;1.60;;
26050;SDS011;13825;53.496;10.020;2023-05-20T07:27:57;2.10;;;1.40;;
26050;SDS011;13825;53.496;10.020;2023-05-20T07:30:24;5.33;;;1.77;;
26050;SDS011;13825;53.496;10.020;2023-05-20T07:33:05;2.27;;;1.77;;
26050;SDS011;13825;53.496;10.020;2023-05-20T07:35:31;5.87;;;1.63;;
26050;SDS011;13825;53.496;10.020;2023-05-20T07:37:58;5.23;;;1.73;;
26050;SDS011;13825;53.496;10.020;2023-05-20T07:40:25;3.27;;;1.50;;
26050;SDS011;13825;53.496;10.020;2023-05-20T07:42:53;1.57;;;1.37;;
26050;SDS011;13825;53.496;10.020;2023-05-20T07:45:20;1.97;;;1.47;;
26050;SDS011;13825;53.496;10.020;2023-05-20T07:47:47;4.27;;;1.60;;
26050;SDS011;13825;53.496;10.020;2023-05-20T07:50:14;3.17;;;1.80;;
26050;SDS011;13825;53.496;10.020;2023-05-20T07:52:41;1.57;;;1.37;;
26050;SDS011;13825;53.496;10.020;2023-05-20T07:55:08;4.03;;;1.60;;
26050;SDS011;13825;53.496;10.020;2023-05-20T07:57:35;2.83;;;1.80;;
26050;SDS011;13825;53.496;10.020;2023-05-20T08:00:03;2.37;;;1.40;;
26050;SDS011;13825;53.496;10.020;2023-05-20T08:02:31;3.57;;;1.60;;
26050;SDS011;13825;53.496;10.020;2023-05-20T08:04:57;1.60;;;1.50;;
26050;SDS011;13825;53.496;10.020;2023-05-20T08:07:24;2.43;;;1.47;;
26050;SDS011;13825;53.496;10.020;2023-05-20T08:09:51;3.13;;;1.70;;
26050;SDS011;13825;53.496;10.020;2023-05-20T08:12:18;2.57;;;1.47;;
26050;SDS011;13825;53.496;10.020;2023-05-20T08:14:45;1.90;;;1.70;;
26050;SDS011;13825;53.496;10.020;2023-05-20T08:17:13;2.07;;;1.67;;
26050;SDS011;13825;53.496;10.020;2023-05-20T08:19:40;2.37;;;1.80;;
26050;SDS011;13825;53.496;10.020;2023-05-20T08:22:07;2.23;;;1.80;;
26050;SDS011;13825;53.496;10.020;2023-05-20T08:24:34;2.23;;;1.67;;
26050;SDS011;13825;53.496;10.020;2023-05-20T08:27:01;3.40;;;1.77;;
26050;SDS011;13825;53.496;10.020;2023-05-20T08:29:29;2.23;;;1.80;;
26050;SDS011;13825;53.496;10.020;2023-05-20T08:31:56;2.90;;;1.93;;
26050;SDS011;13825;53.496;10.020;2023-05-20T08:34:24;2.20;;;1.90;;
26050;SDS011;13825;53.496;10.020;2023-05-20T08:36:51;2.53;;;1.77;;
26050;SDS011;13825;53.496;10.020;2023-05-20T08:39:18;2.90;;;1.70;;
26050;SDS011;13825;53.496;10.020;2023-05-20T08:41:45;2.07;;;1.60;;
26050;SDS011;13825;53.496;10.020;2023-05-20T08:44:12;4.10;;;1.63;;
26050;SDS011;13825;53.496;10.020;2023-05-20T08:46:39;1.80;;;1.40;;
26050;SDS011;13825;53.496;10.020;2023-05-20T08:49:06;1.43;;;1.33;;
26050;SDS011;13825;53.496;10.020;2023-05-20T08:51:35;1.40;;;1.30;;
26050;SDS011;13825;53.496;10.020;2023-05-20T08:54:02;2.83;;;1.60;;
26050;SDS011;13825;53.496;10.020;2023-05-20T08:56:29;4.60;;;1.40;;
26050;SDS011;13825;53.496;10.020;2023-05-20T08:58:58;1.50;;;1.40;;
26050;SDS011;13825;53.496;10.020;2023-05-20T09:01:25;1.80;;;1.30;;
26050;SDS011;13825;53.496;10.020;2023-05-20T09:03:52;2.77;;;1.57;;
26050;SDS011;13825;53.496;10.020;2023-05-20T09:06:19;3.07;;;1.40;;
26050;SDS011;13825;53.496;10.020;2023-05-20T09:08:48;2.00;;;1.73;;
26050;SDS011;13825;53.496;10.020;2023-05-20T09:11:16;2.43;;;1.33;;
26050;SDS011;13825;53.496;10.020;2023-05-20T09:13:44;1.40;;;1.20;;
26050;SDS011;13825;53.496;10.020;2023-05-20T09:16:10;1.50;;;1.40;;
26050;SDS011;13825;53.496;10.020;2023-05-20T09:18:38;4.60;;;1.97;;
26050;SDS011;13825;53.496;10.020;2023-05-20T09:21:05;1.60;;;1.17;;
26050;SDS011;13825;53.496;10.020;2023-05-20T09:23:32;1.40;;;1.30;;
26050;SDS011;13825;53.496;10.020;2023-05-20T09:26:03;2.83;;;1.67;;
26050;SDS011;13825;53.496;10.020;2023-05-20T09:28:30;1.60;;;1.30;;
26050;SDS011;13825;53.496;10.020;2023-05-20T09:31:00;2.20;;;1.60;;
26050;SDS011;13825;53.496;10.020;2023-05-20T09:33:27;8.10;;;1.47;;
26050;SDS011;13825;53.496;10.020;2023-05-20T09:36:01;1.33;;;1.17;;
26050;SDS011;13825;53.496;10.020;2023-05-20T09:38:29;2.03;;;1.40;;
26050;SDS011;13825;53.496;10.020;2023-05-20T09:41:01;2.20;;;1.50;;
26050;SDS011;13825;53.496;10.020;2023-05-20T09:43:32;1.70;;;1.47;;
26050;SDS011;13825;53.496;10.020;2023-05-20T09:45:59;5.10;;;1.83;;
26050;SDS011;13825;53.496;10.020;2023-05-20T09:48:26;3.27;;;1.57;;
26050;SDS011;13825;53.496;10.020;2023-05-20T09:50:54;2.07;;;1.30;;
26050;SDS011;13825;53.496;10.020;2023-05-20T09:53:22;1.33;;;1.20;;
26050;SDS011;13825;53.496;10.020;2023-05-20T09:55:51;3.53;;;1.37;;
26050;SDS011;13825;53.496;10.020;2023-05-20T09:58:21;1.63;;;1.30;;
26050;SDS011;13825;53.496;10.020;2023-05-20T10:00:48;2.17;;;1.20;;
26050;SDS011;13825;53.496;10.020;2023-05-20T10:03:15;1.67;;;1.30;;
26050;SDS011;13825;53.496;10.020;2023-05-20T10:05:44;2.00;;;1.40;;
26050;SDS011;13825;53.496;10.020;2023-05-20T10:08:21;1.43;;;1.20;;
26050;SDS011;13825;53.496;10.020;2023-05-20T10:11:04;1.37;;;1.23;;
26050;SDS011;13825;53.496;10.020;2023-05-20T10:13:57;1.50;;;1.40;;
26050;SDS011;13825;53.496;10.020;2023-05-20T10:16:37;4.13;;;1.60;;
26050;SDS011;13825;53.496;10.020;2023-05-20T10:19:12;3.80;;;1.63;;
26050;SDS011;13825;53.496;10.020;2023-05-20T10:21:55;2.23;;;1.50;;
26050;SDS011;13825;53.496;10.020;2023-05-20T10:24:28;1.83;;;1.37;;
26050;SDS011;13825;53.496;10.020;2023-05-20T10:26:57;2.23;;;1.73;;
26050;SDS011;13825;53.496;10.020;2023-05-20T10:29:26;1.47;;;1.37;;
26050;SDS011;13825;53.496;10.020;2023-05-20T10:31:54;2.53;;;1.50;;
26050;SDS011;13825;53.496;10.020;2023-05-20T10:34:21;2.30;;;1.33;;
26050;SDS011;13825;53.496;10.020;2023-05-20T10:36:57;1.67;;;1.33;;
26050;SDS011;13825;53.496;10.020;2023-05-20T10:39:25;2.73;;;1.50;;
26050;SDS011;13825;53.496;10.020;2023-05-20T10:42:04;1.77;;;1.60;;
26050;SDS011;13825;53.496;10.020;2023-05-20T10:44:43;2.57;;;1.70;;
26050;SDS011;13825;53.496;10.020;2023-05-20T10:47:10;5.47;;;1.83;;
26050;SDS011;13825;53.496;10.020;2023-05-20T10:49:39;4.87;;;1.70;;
26050;SDS011;13825;53.496;10.020;2023-05-20T10:52:07;3.93;;;1.67;;
26050;SDS011;13825;53.496;10.020;2023-05-20T10:54:35;2.03;;;1.73;;
26050;SDS011;13825;53.496;10.020;2023-05-20T10:57:07;2.70;;;2.20;;
26050;SDS011;13825;53.496;10.020;2023-05-20T10:59:35;3.60;;;2.67;;
26050;SDS011;13825;53.496;10.020;2023-05-20T11:02:03;5.07;;;3.60;;
26050;SDS011;13825;53.496;10.020;2023-05-20T11:04:30;3.50;;;2.50;;
26050;SDS011;13825;53.496;10.020;2023-05-20T11:06:58;4.33;;;2.10;;
26050;SDS011;13825;53.496;10.020;2023-05-20T11:09:26;2.57;;;2.33;;
26050;SDS011;13825;53.496;10.020;2023-05-20T11:11:55;2.83;;;1.93;;
26050;SDS011;13825;53.496;10.020;2023-05-20T11:14:22;2.40;;;2.00;;
26050;SDS011;13825;53.496;10.020;2023-05-20T11:16:52;2.73;;;1.70;;
26050;SDS011;13825;53.496;10.020;2023-05-20T11:19:22;5.23;;;3.67;;
26050;SDS011;13825;53.496;10.020;2023-05-20T11:21:50;3.00;;;2.20;;
26050;SDS011;13825;53.496;10.020;2023-05-20T11:24:24;6.20;;;3.37;;
26050;SDS011;13825;53.496;10.020;2023-05-20T11:26:51;4.17;;;2.10;;
26050;SDS011;13825;53.496;10.020;2023-05-20T11:29:19;5.17;;;1.77;;
26050;SDS011;13825;53.496;10.020;2023-05-20T11:31:47;3.30;;;1.80;;
26050;SDS011;13825;53.496;10.020;2023-05-20T11:34:15;2.60;;;1.67;;
26050;SDS011;13825;53.496;10.020;2023-05-20T11:36:43;3.50;;;1.77;;
26050;SDS011;13825;53.496;10.020;2023-05-20T11:39:10;2.47;;;1.53;;
26050;SDS011;13825;53.496;10.020;2023-05-20T11:41:38;4.30;;;2.53;;
26050;SDS011;13825;53.496;10.020;2023-05-20T11:44:08;5.63;;;2.10;;
26050;SDS011;13825;53.496;10.020;2023-05-20T11:46:40;2.33;;;1.77;;
26050;SDS011;13825;53.496;10.020;2023-05-20T11:49:07;2.57;;;1.60;;
26050;SDS011;13825;53.496;10.020;2023-05-20T11:51:35;3.13;;;1.63;;
26050;SDS011;13825;53.496;10.020;2023-05-20T11:54:05;3.27;;;1.67;;
26050;SDS011;13825;53.496;10.020;2023-05-20T11:56:36;2.70;;;1.93;;
26050;SDS011;13825;53.496;10.020;2023-05-20T11:59:05;2.33;;;1.80;;
26050;SDS011;13825;53.496;10.020;2023-05-20T12:01:34;3.70;;;1.50;;
26050;SDS011;13825;53.496;10.020;2023-05-20T12:04:05;2.17;;;1.67;;
26050;SDS011;13825;53.496;10.020;2023-05-20T12:06:32;4.70;;;2.00;;
26050;SDS011;13825;53.496;10.020;2023-05-20T12:09:01;2.70;;;1.50;;
26050;SDS011;13825;53.496;10.020;2023-05-20T12:11:32;2.33;;;1.77;;
26050;SDS011;13825;53.496;10.020;2023-05-20T12:14:08;2.67;;;1.50;;
26050;SDS011;13825;53.496;10.020;2023-05-20T12:16:36;2.10;;;1.60;;
26050;SDS011;13825;53.496;10.020;2023-05-20T12:19:03;1.73;;;1.60;;
26050;SDS011;13825;53.496;10.020;2023-05-20T12:21:33;2.00;;;1.80;;
26050;SDS011;13825;53.496;10.020;2023-05-20T12:24:00;2.67;;;2.00;;
26050;SDS011;13825;53.496;10.020;2023-05-20T12:26:34;2.53;;;1.47;;
26050;SDS011;13825;53.496;10.020;2023-05-20T12:29:01;2.57;;;1.70;;
26050;SDS011;13825;53.496;10.020;2023-05-20T12:31:28;2.07;;;1.80;;
26050;SDS011;13825;53.496;10.020;2023-05-20T12:33:58;2.10;;;1.47;;
26050;SDS011;13825;53.496;10.020;2023-05-20T12:36:25;2.23;;;1.70;;
26050;SDS011;13825;53.496;10.020;2023-05-20T12:38:53;3.53;;;1.70;;
26050;SDS011;13825;53.496;10.020;2023-05-20T12:41:20;2.63;;;1.50;;
26050;SDS011;13825;53.496;10.020;2023-05-20T12:43:50;3.57;;;2.10;;
26050;SDS011;13825;53.496;10.020;2023-05-20T12:46:18;2.10;;;1.80;;
26050;SDS011;13825;53.496;10.020;2023-05-20T12:48:45;3.30;;;1.83;;
26050;SDS011;13825;53.496;10.020;2023-05-20T12:51:13;3.90;;;1.93;;
26050;SDS011;13825;53.496;10.020;2023-05-20T12:53:43;1.70;;;1.57;;
26050;SDS011;13825;53.496;10.020;2023-05-20T12:56:09;2.33;;;1.40;;
26050;SDS011;13825;53.496;10.020;2023-05-20T12:58:42;3.17;;;1.70;;
26050;SDS011;13825;53.496;10.020;2023-05-20T13:01:19;2.43;;;1.60;;
26050;SDS011;13825;53.496;10.020;2023-05-20T13:03:50;2.70;;;1.93;;
26050;SDS011;13825;53.496;10.020;2023-05-20T13:06:25;3.70;;;1.60;;
26050;SDS011;13825;53.496;10.020;2023-05-20T13:08:52;2.20;;;1.60;;
26050;SDS011;13825;53.496;10.020;2023-05-20T13:11:22;4.47;;;1.63;;
26050;SDS011;13825;53.496;10.020;2023-05-20T13:13:52;1.87;;;1.60;;
26050;SDS011;13825;53.496;10.020;2023-05-20T13:16:23;3.10;;;1.90;;
26050;SDS011;13825;53.496;10.020;2023-05-20T13:18:50;2.07;;;1.70;;
26050;SDS011;13825;53.496;10.020;2023-05-20T13:21:18;1.63;;;1.40;;
26050;SDS011;13825;53.496;10.020;2023-05-20T13:23:50;1.40;;;1.30;;
26050;SDS011;13825;53.496;10.020;2023-05-20T13:26:17;3.03;;;1.87;;
26050;SDS011;13825;53.496;10.020;2023-05-20T13:28:44;2.27;;;1.50;;
26050;SDS011;13825;53.496;10.020;2023-05-20T13:31:20;2.17;;;1.70;;
26050;SDS011;13825;53.496;10.020;2023-05-20T13:33:49;2.17;;;1.40;;
26050;SDS011;13825;53.496;10.020;2023-05-20T13:36:22;1.80;;;1.70;;
26050;SDS011;13825;53.496;10.020;2023-05-20T13:38:49;2.87;;;1.40;;
26050;SDS011;13825;53.496;10.020;2023-05-20T13:41:19;2.33;;;1.60;;
26050;SDS011;13825;53.496;10.020;2023-05-20T13:43:50;1.70;;;1.60;;
26050;SDS011;13825;53.496;10.020;2023-05-20T13:46:23;1.80;;;1.70;;
26050;SDS011;13825;53.496;10.020;2023-05-20T13:48:53;3.23;;;2.40;;
26050;SDS011;13825;53.496;10.020;2023-05-20T13:51:25;2.20;;;1.70;;
26050;SDS011;13825;53.496;10.020;2023-05-20T13:53:52;2.97;;;1.80;;
26050;SDS011;13825;53.496;10.020;2023-05-20T13:56:24;3.00;;;1.33;;
26050;SDS011;13825;53.496;10.020;2023-05-20T13:59:12;4.13;;;1.90;;
26050;SDS011;13825;53.496;10.020;2023-05-20T14:01:41;2.40;;;1.67;;
26050;SDS011;13825;53.496;10.020;2023-05-20T14:04:19;2.13;;;1.50;;
26050;SDS011;13825;53.496;10.020;2023-05-20T14:07:02;3.03;;;1.90;;
26050;SDS011;13825;53.496;10.020;2023-05-20T14:09:34;2.20;;;1.77;;
26050;SDS011;13825;53.496;10.020;2023-05-20T14:12:10;4.43;;;2.00;;
26050;SDS011;13825;53.496;10.020;2023-05-20T14:14:48;2.50;;;1.93;;
26050;SDS011;13825;53.496;10.020;2023-05-20T14:17:20;2.33;;;1.90;;
26050;SDS011;13825;53.496;10.020;2023-05-20T14:19:56;1.50;;;1.40;;
26050;SDS011;13825;53.496;10.020;2023-05-20T14:22:27;4.73;;;2.00;;
26050;SDS011;13825;53.496;10.020;2023-05-20T14:24:54;2.20;;;1.50;;
26050;SDS011;13825;53.496;10.020;2023-05-20T14:27:21;2.90;;;2.10;;
26050;SDS011;13825;53.496;10.020;2023-05-20T14:29:49;3.17;;;1.70;;
26050;SDS011;13825;53.496;10.020;2023-05-20T14:32:19;1.97;;;1.70;;
26050;SDS011;13825;53.496;10.020;2023-05-20T14:34:45;2.17;;;1.97;;
26050;SDS011;13825;53.496;10.020;2023-05-20T14:37:15;1.97;;;1.67;;
26050;SDS011;13825;53.496;10.020;2023-05-20T14:39:42;2.17;;;1.80;;
26050;SDS011;13825;53.496;10.020;2023-05-20T14:42:09;1.80;;;1.70;;